createdAt,value
2022-08-31T00:03:15.398Z,15.93
2022-08-31T00:08:17.828Z,16.33
2022-08-31T00:13:20.099Z,15.50
2022-08-31T00:18:23.233Z,16.17
2022-08-31T00:23:26.019Z,16.52
2022-08-31T00:28:28.126Z,16.92
2022-08-31T00:33:30.257Z,16.92
2022-08-31T00:38:34.581Z,16.05
2022-08-31T00:43:47.373Z,16.70
2022-08-31T00:49:04.833Z,17.23
2022-08-31T00:54:09.711Z,15.85
2022-08-31T00:59:15.737Z,16.55
2022-08-31T01:04:18.088Z,17.65
2022-08-31T01:09:23.742Z,18.73
2022-08-31T01:14:26.155Z,16.65
2022-08-31T01:19:45.505Z,17.67
2022-08-31T01:24:49.576Z,16.75
2022-08-31T01:29:51.901Z,18.00
2022-08-31T01:34:54.132Z,17.50
2022-08-31T01:39:57.101Z,15.95
2022-08-31T01:44:59.533Z,18.05
2022-08-31T01:50:02.190Z,16.25
2022-08-31T01:55:07.046Z,17.80
2022-08-31T02:00:10.940Z,18.50
2022-08-31T02:05:21.760Z,18.75
2022-08-31T02:10:24.629Z,16.73
2022-08-31T02:15:27.155Z,15.88
2022-08-31T02:20:29.524Z,15.57
2022-08-31T02:25:31.815Z,15.68
2022-08-31T02:30:36.669Z,15.85
2022-08-31T02:35:39.182Z,16.55
2022-08-31T02:40:41.832Z,17.52
2022-08-31T02:45:45.587Z,17.05
2022-08-31T02:51:06.662Z,15.50
2022-08-31T02:56:09.590Z,16.60
2022-08-31T03:01:12.004Z,15.68
2022-08-31T03:06:16.552Z,16.25
2022-08-31T03:11:20.314Z,17.95
2022-08-31T03:16:22.928Z,17.00
2022-08-31T03:21:25.424Z,16.30
2022-08-31T03:26:28.152Z,15.82
2022-08-31T03:31:31.530Z,19.85
2022-08-31T03:36:33.946Z,17.55
2022-08-31T03:41:36.170Z,17.88
2022-08-31T03:46:45.570Z,17.48
2022-08-31T03:51:48.358Z,18.40
2022-08-31T03:56:54.928Z,17.80
2022-08-31T04:01:57.466Z,19.25
2022-08-31T04:07:26.032Z,18.75
2022-08-31T04:12:49.123Z,18.60
2022-08-31T04:18:09.504Z,18.23
2022-08-31T04:23:25.780Z,18.23
2022-08-31T04:28:28.628Z,17.42
2022-08-31T04:33:30.930Z,17.73
2022-08-31T04:38:33.365Z,16.55
2022-08-31T04:43:37.634Z,16.83
2022-08-31T04:48:40.518Z,16.02
2022-08-31T04:53:44.844Z,14.80
2022-08-31T04:58:50.524Z,14.82
2022-08-31T05:03:53.541Z,15.20
2022-08-31T05:08:58.304Z,17.17
2022-08-31T05:14:02.232Z,15.73
2022-08-31T05:19:05.514Z,14.02
2022-08-31T05:24:14.416Z,14.45
2022-08-31T05:29:19.420Z,14.48
2022-08-31T05:34:22.623Z,13.55
2022-08-31T05:39:26.276Z,13.45
2022-08-31T05:44:29.427Z,10.80
2022-08-31T05:49:33.538Z,9.15
2022-08-31T05:54:36.889Z,8.52
2022-08-31T05:59:40.428Z,8.07
2022-08-31T06:04:43.851Z,8.15
2022-08-31T06:09:46.811Z,7.85
2022-08-31T06:14:53.652Z,7.32
2022-08-31T06:19:58.242Z,7.28
2022-08-31T06:25:00.828Z,8.15
2022-08-31T06:30:04.959Z,8.07
2022-08-31T06:35:10.177Z,8.30
2022-08-31T06:40:33.584Z,7.70
2022-08-31T06:46:02.511Z,7.20
2022-08-31T06:51:09.057Z,7.65
2022-08-31T06:56:20.931Z,7.57
2022-08-31T07:01:41.990Z,7.72
2022-08-31T07:06:54.873Z,7.45
2022-08-31T07:11:57.654Z,7.63
2022-08-31T07:17:03.233Z,8.18
2022-08-31T07:22:09.632Z,7.93
2022-08-31T07:27:22.713Z,8.13
2022-08-31T07:32:30.059Z,7.93
2022-08-31T07:37:51.411Z,7.18
2022-08-31T07:43:02.357Z,6.70
2022-08-31T07:48:09.983Z,7.82
2022-08-31T07:53:43.373Z,8.07
2022-08-31T07:58:59.263Z,7.18
2022-08-31T08:04:02.591Z,7.68
2022-08-31T08:09:26.799Z,8.82
2022-08-31T08:14:55.013Z,8.02
2022-08-31T08:20:11.669Z,8.50
2022-08-31T08:25:17.894Z,8.50
2022-08-31T08:31:01.665Z,7.47
2022-08-31T08:36:08.331Z,7.97
2022-08-31T08:41:16.990Z,10.65
2022-08-31T08:46:34.912Z,8.15
2022-08-31T08:51:39.802Z,7.45
2022-08-31T08:56:47.939Z,8.25
2022-08-31T09:01:58.260Z,7.55
2022-08-31T09:07:05.146Z,8.77
2022-08-31T09:12:39.393Z,8.07
2022-08-31T09:17:48.434Z,7.40
2022-08-31T09:22:55.894Z,8.27
2022-08-31T09:28:07.706Z,8.95
2022-08-31T09:33:47.222Z,7.82
2022-08-31T09:38:50.238Z,10.55
2022-08-31T09:43:52.470Z,7.30
2022-08-31T09:48:58.514Z,7.60
2022-08-31T09:54:27.117Z,7.28
2022-08-31T09:59:44.753Z,7.38
2022-08-31T10:04:52.154Z,7.93
2022-08-31T10:10:03.855Z,8.07
2022-08-31T10:15:15.368Z,6.70
2022-08-31T10:20:25.324Z,6.70
2022-08-31T10:25:38.529Z,6.90
2022-08-31T10:30:52.425Z,6.68
2022-08-31T10:36:01.402Z,7.38
2022-08-31T10:41:18.246Z,6.60
2022-08-31T10:46:21.182Z,6.78
2022-08-31T10:51:46.621Z,6.60
2022-08-31T10:57:07.807Z,6.03
2022-08-31T11:02:29.321Z,6.00
2022-08-31T11:07:42.047Z,6.93
2022-08-31T11:12:49.718Z,7.03
2022-08-31T11:18:07.518Z,6.35
2022-08-31T11:23:52.231Z,6.65
2022-08-31T11:29:00.611Z,7.25
2022-08-31T11:34:47.456Z,8.23
2022-08-31T11:39:51.673Z,8.13
2022-08-31T11:45:32.286Z,7.05
2022-08-31T11:50:37.447Z,6.45
2022-08-31T11:56:06.914Z,5.97
2022-08-31T12:06:34.314Z,6.88
2022-08-31T12:11:46.442Z,6.28
2022-08-31T12:17:22.869Z,6.43
2022-08-31T12:23:30.727Z,5.88
2022-08-31T12:28:58.722Z,6.70
2022-08-31T12:34:11.889Z,6.90
2022-08-31T12:39:28.679Z,7.07
2022-08-31T12:50:46.906Z,7.20
2022-08-31T12:56:31.652Z,7.03
2022-08-31T13:01:54.376Z,6.47
2022-08-31T13:07:20.359Z,6.25
2022-08-31T13:12:24.196Z,7.07
2022-08-31T13:17:26.847Z,6.40
2022-08-31T13:22:31.787Z,7.93
2022-08-31T13:27:36.598Z,7.00
2022-08-31T13:32:41.059Z,6.95
2022-08-31T13:38:05.174Z,7.38
2022-08-31T13:43:10.689Z,8.43
2022-08-31T13:48:20.036Z,6.90
2022-08-31T13:54:06.375Z,7.43
2022-08-31T13:59:24.021Z,7.20
2022-08-31T14:04:50.617Z,7.25
2022-08-31T14:10:14.394Z,7.65
2022-08-31T14:15:22.061Z,7.47
2022-08-31T14:20:53.416Z,7.57
2022-08-31T14:31:49.446Z,7.13
2022-08-31T14:36:55.774Z,8.63
2022-08-31T14:42:09.746Z,7.45
2022-08-31T14:47:12.593Z,6.57
2022-08-31T14:52:16.302Z,8.35
2022-08-31T14:57:25.709Z,6.53
2022-08-31T15:02:33.610Z,7.10
2022-08-31T15:07:39.505Z,7.10
2022-08-31T15:12:41.841Z,6.90
2022-08-31T15:17:44.183Z,6.45
2022-08-31T15:22:48.572Z,6.35
2022-08-31T15:27:51.881Z,5.97
2022-08-31T15:32:55.386Z,7.03
2022-08-31T15:38:01.393Z,6.55
2022-08-31T15:43:09.745Z,8.85
2022-08-31T15:48:30.525Z,5.50
2022-08-31T15:53:35.654Z,6.10
2022-08-31T15:58:39.338Z,6.70
2022-08-31T16:03:42.256Z,7.07
2022-08-31T16:08:44.386Z,6.93
2022-08-31T16:13:54.717Z,6.72
2022-08-31T16:18:57.562Z,7.28
2022-08-31T16:24:03.393Z,7.05
2022-08-31T16:29:09.230Z,6.80
2022-08-31T16:34:13.010Z,7.40
2022-08-31T16:39:15.374Z,6.68
2022-08-31T16:44:19.997Z,7.60
2022-08-31T16:49:34.493Z,7.95
2022-08-31T16:54:43.017Z,7.40
2022-08-31T16:59:46.811Z,7.90
2022-08-31T17:04:53.065Z,7.97
2022-08-31T17:10:02.033Z,7.43
2022-08-31T17:15:04.804Z,8.40
2022-08-31T17:20:08.033Z,9.57
2022-08-31T17:25:10.323Z,8.77
2022-08-31T17:30:12.748Z,9.73
2022-08-31T17:35:18.842Z,9.75
2022-08-31T17:40:21.534Z,9.48
2022-08-31T17:45:23.979Z,23.65
2022-08-31T17:50:26.320Z,10.45
2022-08-31T17:55:30.095Z,7.93
2022-08-31T18:00:34.146Z,11.15
2022-08-31T18:05:37.335Z,7.97
2022-08-31T18:10:41.547Z,7.30
2022-08-31T18:15:43.845Z,8.38
2022-08-31T18:20:46.070Z,9.85
2022-08-31T18:25:48.987Z,14.57
2022-08-31T18:30:52.038Z,14.75
2022-08-31T18:35:55.638Z,13.82
2022-08-31T18:41:19.747Z,9.35
2022-08-31T18:46:25.528Z,9.23
2022-08-31T18:51:29.706Z,9.07
2022-08-31T18:56:32.813Z,13.65
2022-08-31T19:01:35.055Z,10.13
2022-08-31T19:06:40.197Z,13.05
2022-08-31T19:11:51.396Z,9.60
2022-08-31T19:16:55.263Z,14.32
2022-08-31T19:22:06.334Z,10.90
2022-08-31T19:27:10.514Z,10.55
2022-08-31T19:32:14.002Z,15.85
2022-08-31T19:37:16.577Z,13.77
2022-08-31T19:42:19.480Z,11.07
2022-08-31T19:47:25.070Z,10.80
2022-08-31T19:52:27.607Z,10.48
2022-08-31T19:57:31.137Z,10.52
2022-08-31T20:02:33.953Z,14.35
2022-08-31T20:07:36.530Z,14.90
2022-08-31T20:12:39.809Z,12.13
2022-08-31T20:17:43.579Z,11.50
2022-08-31T20:22:46.719Z,10.38
2022-08-31T20:27:50.499Z,10.65
2022-08-31T20:32:53.141Z,10.70
2022-08-31T20:37:56.478Z,11.98
2022-08-31T20:42:58.894Z,11.38
2022-08-31T20:48:19.550Z,11.40
2022-08-31T20:53:38.945Z,12.13
2022-08-31T20:58:46.502Z,11.52
2022-08-31T21:03:48.627Z,10.95
2022-08-31T21:08:56.497Z,11.55
2022-08-31T21:14:00.285Z,10.55
2022-08-31T21:19:04.025Z,12.02
2022-08-31T21:24:06.593Z,12.00
2022-08-31T21:29:11.592Z,12.50
2022-08-31T21:34:18.540Z,12.50
2022-08-31T21:39:22.260Z,11.52
2022-08-31T21:44:24.760Z,12.88
2022-08-31T21:49:26.899Z,11.70
2022-08-31T21:54:29.398Z,11.77
2022-08-31T21:59:35.311Z,11.05
2022-08-31T22:04:43.549Z,10.82
2022-08-31T22:09:47.177Z,11.32
2022-08-31T22:14:50.849Z,11.60
2022-08-31T22:19:53.189Z,11.07
2022-08-31T22:24:55.564Z,11.65
2022-08-31T22:29:57.807Z,13.40
2022-08-31T22:35:00.006Z,12.27
2022-08-31T22:40:02.258Z,12.27
2022-08-31T22:45:04.964Z,10.38
2022-08-31T22:50:08.678Z,11.73
2022-08-31T22:55:13.317Z,11.70
2022-08-31T23:00:15.777Z,11.27
2022-08-31T23:05:20.764Z,11.88
2022-08-31T23:10:24.295Z,12.00
2022-08-31T23:15:26.686Z,13.82
2022-08-31T23:20:29.008Z,10.43
2022-08-31T23:25:32.872Z,12.13
2022-08-31T23:30:35.623Z,10.50
2022-08-31T23:35:37.870Z,11.27
2022-08-31T23:40:40.192Z,11.23
2022-08-31T23:45:42.592Z,11.30
2022-08-31T23:50:45.054Z,11.30
2022-08-31T23:55:48.178Z,11.20
